Time;durP1;ratioP1;P1;durP2;ratioP2;P2;SDS_P1;SDS_P2;PMS_P1;PMS_P2;Temp;Humidity;BMP_temperature;BMP_pressure;BME280_temperature;BME280_humidity;BME280_pressure;Samples;Min_cycle;Max_cycle;Signal;HPM_P1;HPM_P2
2024/01/27 00:05:34;;;;;;;10.73;4.00;;;5.80;99.90;;;;;;6199610;23;20211;-89
2024/01/27 00:18:59;;;;;;;8.98;3.33;;;5.70;15.80;;;;;;6071197;23;20346;-87
2024/01/27 00:21:59;;;;;;;8.38;3.45;;;5.70;85.70;;;;;;6090092;23;20179;-88
2024/01/27 00:24:30;;;;;;;17.25;2.65;;;5.50;69.10;;;;;;6071195;23;20195;-88
2024/01/27 00:27:17;;;;;;;7.50;3.63;;;5.70;99.90;;;;;;6155288;23;20295;-87
2024/01/27 00:33:53;;;;;;;12.93;2.83;;;5.60;99.90;;;;;;6149445;23;20197;-85
2024/01/27 00:40:31;;;;;;;21.23;4.18;;;5.60;99.90;;;;;;5824529;24;20253;-88
2024/01/27 00:42:59;;;;;;;17.80;4.57;;;5.50;47.60;;;;;;5822629;24;20204;-88
2024/01/27 00:45:41;;;;;;;9.48;3.38;;;5.50;1.00;;;;;;6048770;23;20234;-87
2024/01/27 00:48:14;;;;;;;13.38;3.83;;;5.50;20.80;;;;;;6071706;23;20198;-88
2024/01/27 00:57:01;;;;;;;13.85;2.88;;;5.60;17.90;;;;;;6067306;23;20646;-88
2024/01/27 00:59:38;;;;;;;10.55;3.40;;;5.70;88.80;;;;;;6211119;23;20521;-88
2024/01/27 01:02:29;;;;;;;10.38;2.60;;;5.90;57.60;;;;;;6227480;23;20167;-86
2024/01/27 01:05:04;;;;;;;10.85;3.10;;;5.70;9.10;;;;;;6230591;23;20171;-87
2024/01/27 01:07:58;;;;;;;7.03;3.47;;;5.60;1.00;;;;;;6222857;23;20175;-87
2024/01/27 01:10:27;;;;;;;8.15;2.85;;;5.50;16.00;;;;;;6220902;23;20171;-88
2024/01/27 01:13:08;;;;;;;11.90;3.10;;;5.60;27.40;;;;;;6221905;23;20286;-90
2024/01/27 01:16:01;;;;;;;7.25;3.00;;;5.60;1.00;;;;;;6226066;23;20198;-88
2024/01/27 01:21:47;;;;;;;18.08;3.10;;;5.60;26.50;;;;;;6215776;23;20202;-86
2024/01/27 01:24:46;;;;;;;15.07;3.13;;;5.60;1.00;;;;;;6219414;23;20281;-86
2024/01/27 01:28:08;;;;;;;8.63;3.28;;;5.60;1.00;;;;;;6220985;23;20156;-86
2024/01/27 01:31:02;;;;;;;8.05;3.28;;;5.50;1.00;;;;;;6220238;23;20175;-86
2024/01/27 01:33:39;;;;;;;11.23;3.67;;;5.50;1.00;;;;;;6219587;23;20199;-87
2024/01/27 01:36:12;;;;;;;10.77;3.45;;;5.50;21.90;;;;;;6231458;23;20175;-87
2024/01/27 01:38:42;;;;;;;18.05;5.05;;;4.90;2.60;;;;;;6242446;23;20167;-89
2024/01/27 01:41:24;;;;;;;15.45;4.55;;;5.20;1.00;;;;;;6238449;22;20167;-88
2024/01/27 01:44:26;;;;;;;13.00;3.80;;;5.30;87.70;;;;;;6242060;23;20205;-87
2024/01/27 01:47:06;;;;;;;12.85;4.90;;;5.40;1.00;;;;;;6242330;23;20163;-87
2024/01/27 01:49:41;;;;;;;11.55;3.92;;;5.40;85.30;;;;;;6242731;22;20174;-86
2024/01/27 01:52:35;;;;;;;9.68;3.58;;;5.40;1.00;;;;;;6238723;23;20169;-86
2024/01/27 01:55:39;;;;;;;;;;;;;;;;;;;;;
2024/01/27 02:05:47;;;;;;;14.82;4.35;;;5.40;59.50;;;;;;6127604;23;20176;-87
2024/01/27 02:08:36;;;;;;;13.73;3.80;;;5.30;99.90;;;;;;6188255;23;20547;-86
2024/01/27 02:11:03;;;;;;;17.38;3.55;;;5.40;84.20;;;;;;6221139;23;20182;-87
2024/01/27 02:13:35;;;;;;;15.75;4.60;;;5.00;99.90;;;;;;6220073;23;20583;-89
2024/01/27 02:16:12;;;;;;;15.45;3.67;;;5.90;99.90;;;;;;6222201;23;20163;-86
2024/01/27 02:23:03;;;;;;;7.93;3.38;;;5.40;52.80;;;;;;6172196;23;20185;-87
2024/01/27 02:25:53;;;;;;;9.93;2.80;;;5.50;99.90;;;;;;6099435;23;20188;-87
2024/01/27 02:28:58;;;;;;;17.73;3.58;;;5.60;99.90;;;;;;6096909;23;20166;-87
2024/01/27 02:34:39;;;;;;;7.82;2.85;;;5.60;99.90;;;;;;6099753;23;20216;-86
2024/01/27 02:40:05;;;;;;;13.05;5.18;;;5.60;99.90;;;;;;6230941;23;20183;-86
2024/01/27 02:43:14;;;;;;;9.13;3.40;;;5.60;90.20;;;;;;6234629;23;20253;-86
2024/01/27 02:46:23;;;;;;;7.65;3.25;;;5.60;99.90;;;;;;6234565;23;20235;-86
2024/01/27 03:15:49;;;;;;;8.27;3.00;;;5.50;99.90;;;;;;5910414;24;20549;-90
2024/01/27 03:37:52;;;;;;;;;;;;;;;;;;;;;
2024/01/27 03:48:17;;;;;;;11.65;3.20;;;5.00;1.00;;;;;;5929520;24;20238;-90
2024/01/27 05:10:47;;;;;;;15.00;4.30;;;5.00;99.90;;;;;;6126352;22;20202;-88
2024/01/27 05:14:08;;;;;;;17.88;3.92;;;5.00;1.00;;;;;;6222359;23;20199;-90
2024/01/27 05:16:44;;;;;;;12.65;3.55;;;5.00;1.00;;;;;;6090369;23;20170;-88
2024/01/27 05:19:39;;;;;;;14.55;4.80;;;5.00;1.00;;;;;;6177783;23;20196;-89
2024/01/27 05:42:57;;;;;;;15.88;3.97;;;5.00;1.00;;;;;;5989083;24;20195;-88
2024/01/27 07:12:15;;;;;;;9.55;4.28;;;5.50;1.00;;;;;;5972679;24;20201;-89
2024/01/27 07:15:17;;;;;;;11.45;3.45;;;5.40;1.00;;;;;;6028202;23;20202;-89
2024/01/27 07:18:24;;;;;;;7.43;3.40;;;5.70;1.00;;;;;;6102867;23;20180;-88
2024/01/27 07:21:26;;;;;;;18.25;4.13;;;5.40;1.00;;;;;;6101651;23;20181;-88
2024/01/27 07:24:21;;;;;;;11.13;3.35;;;5.40;1.00;;;;;;6179458;23;20167;-87
2024/01/27 07:27:38;;;;;;;8.65;3.58;;;5.50;40.10;;;;;;6192702;23;20199;-88
2024/01/27 07:30:43;;;;;;;14.55;4.03;;;5.60;1.00;;;;;;6192308;23;20226;-88
2024/01/27 07:33:46;;;;;;;8.45;3.72;;;5.40;17.20;;;;;;6191821;23;20535;-88
2024/01/27 07:44:06;;;;;;;14.82;4.65;;;5.60;1.00;;;;;;6090390;23;20235;-87
2024/01/27 08:03:49;;;;;;;9.95;2.97;;;5.70;1.00;;;;;;6009173;23;20682;-88
2024/01/27 09:04:37;;;;;;;14.40;4.55;;;6.30;99.90;;;;;;6188764;23;20202;-87
2024/01/27 09:07:40;;;;;;;14.95;4.88;;;6.50;99.90;;;;;;6225290;23;20178;-86
2024/01/27 09:10:29;;;;;;;9.77;5.53;;;6.40;99.90;;;;;;6223825;23;20366;-87
2024/01/27 09:20:27;;;;;;;;;;;;;;;;;;;;;
2024/01/27 09:26:57;;;;;;;11.25;3.42;;;6.40;99.90;;;;;;6224265;23;20613;-88
2024/01/27 10:58:42;;;;;;;10.35;3.70;;;6.90;7.10;;;;;;5879936;24;20549;-87
2024/01/27 11:01:47;;;;;;;16.15;4.20;;;7.00;60.40;;;;;;5928021;23;20177;-87
2024/01/27 11:11:43;;;;;;;7.32;3.35;;;6.90;99.90;;;;;;5844684;24;20184;-87
2024/01/27 11:45:14;;;;;;;10.50;3.83;;;6.90;46.00;;;;;;6084128;23;20188;-87
2024/01/27 11:48:20;;;;;;;11.80;4.70;;;6.90;95.70;;;;;;5964550;24;20181;-87
2024/01/27 11:54:38;;;;;;;14.55;5.13;;;7.20;99.90;;;;;;6059576;23;20202;-88
2024/01/27 11:57:41;;;;;;;13.90;3.20;;;7.20;75.70;;;;;;6078679;23;20225;-88
2024/01/27 12:07:08;;;;;;;16.60;5.70;;;7.00;99.90;;;;;;6165035;23;20192;-88
2024/01/27 12:13:28;;;;;;;13.85;5.05;;;7.10;99.90;;;;;;5909999;24;20209;-88
2024/01/27 12:19:32;;;;;;;22.13;6.13;;;7.20;99.90;;;;;;5853428;24;20240;-87
2024/01/27 12:26:11;;;;;;;;;;;;;;;;;;;;;
2024/01/27 12:29:31;;;;;;;16.57;4.57;;;7.30;97.50;;;;;;5970450;23;20418;-87
2024/01/27 12:55:46;;;;;;;;;;;;;;;;;;;;;
2024/01/27 12:58:57;;;;;;;14.98;5.03;;;7.10;7.90;;;;;;5962970;24;20181;-87
2024/01/27 13:05:13;;;;;;;12.85;5.50;;;7.10;1.00;;;;;;6155664;23;20208;-87
2024/01/27 13:15:12;;;;;;;15.63;6.10;;;6.90;1.50;;;;;;5960003;23;20208;-87
2024/01/27 13:33:40;;;;;;;;;;;;;;;;;;;;;
2024/01/27 14:04:28;;;;;;;13.27;6.10;;;7.00;63.70;;;;;;6166538;23;20659;-84
2024/01/27 14:06:56;;;;;;;14.07;5.50;;;7.10;99.90;;;;;;6163373;23;20184;-83
2024/01/27 14:09:24;;;;;;;24.40;8.40;;;7.10;99.90;;;;;;6175543;23;20168;-81
2024/01/27 14:11:51;;;;;;;12.90;5.63;;;7.20;99.90;;;;;;6180585;23;20415;-81
2024/01/27 14:14:18;;;;;;;17.45;6.45;;;7.00;17.40;;;;;;6180356;23;20191;-82
2024/01/27 14:16:45;;;;;;;21.90;5.20;;;7.10;99.90;;;;;;6179774;23;20207;-81
2024/01/27 14:19:12;;;;;;;14.20;5.05;;;7.20;99.90;;;;;;6171885;23;20180;-80
2024/01/27 14:21:41;;;;;;;16.20;5.10;;;7.20;23.30;;;;;;6169449;23;20526;-81
2024/01/27 14:24:09;;;;;;;12.20;4.40;;;7.20;99.90;;;;;;6170455;23;20219;-80
2024/01/27 14:26:37;;;;;;;9.97;3.93;;;7.20;47.30;;;;;;6173926;23;20408;-82
2024/01/27 14:29:06;;;;;;;24.50;4.80;;;7.30;99.90;;;;;;6174816;23;20412;-83
2024/01/27 14:31:36;;;;;;;17.38;5.82;;;7.30;99.90;;;;;;6171236;23;20414;-88
2024/01/27 14:37:42;;;;;;;11.90;4.67;;;7.30;99.90;;;;;;6167129;23;20176;-86
2024/01/27 14:41:02;;;;;;;12.90;4.87;;;7.20;99.90;;;;;;6147273;23;20435;-88
2024/01/27 14:44:15;;;;;;;;;;;;;;;;;;;;;
2024/01/27 14:47:00;;;;;;;8.27;3.93;;;7.20;99.90;;;;;;6180729;23;20160;-89
2024/01/27 14:53:14;;;;;;;11.87;5.30;;;7.10;99.90;;;;;;6083814;23;20399;-88
2024/01/27 15:06:25;;;;;;;15.82;5.22;;;6.90;99.90;;;;;;6047962;23;20410;-89
2024/01/27 15:17:10;;;;;;;8.37;4.10;;;7.00;99.90;;;;;;5995412;24;20188;-89
2024/01/27 15:20:29;;;;;;;12.98;4.30;;;6.90;99.90;;;;;;6001216;23;20424;-88
2024/01/27 16:46:36;;;;;;;9.30;4.38;;;6.10;1.00;;;;;;6163777;23;20218;-87
2024/01/27 16:52:35;;;;;;;10.18;4.90;;;6.00;1.00;;;;;;6102499;23;20162;-89
2024/01/27 16:55:14;;;;;;;15.30;4.43;;;5.90;1.00;;;;;;6154714;23;20161;-88
2024/01/27 16:58:15;;;;;;;10.43;4.18;;;5.90;1.00;;;;;;6149555;23;20153;-88
2024/01/27 17:01:11;;;;;;;10.30;5.20;;;5.90;1.00;;;;;;6152852;23;20177;-88
2024/01/27 17:14:04;;;;;;;8.25;3.20;;;5.70;1.00;;;;;;6142663;23;20193;-89
2024/01/27 17:17:18;;;;;;;14.90;4.72;;;5.80;1.00;;;;;;6142188;23;20197;-89
2024/01/27 17:20:14;;;;;;;9.98;3.80;;;5.80;1.00;;;;;;6103614;23;20188;-88
2024/01/27 17:22:41;;;;;;;13.35;3.65;;;5.60;1.00;;;;;;6139432;23;20179;-88
2024/01/27 17:25:09;;;;;;;9.18;4.40;;;5.60;1.00;;;;;;6139021;23;20188;-88
2024/01/27 17:27:36;;;;;;;12.88;4.25;;;5.70;1.00;;;;;;6137712;23;20181;-87
2024/01/27 17:30:05;;;;;;;11.27;4.30;;;5.60;1.00;;;;;;6140154;23;20180;-86
2024/01/27 17:32:31;;;;;;;12.60;6.90;;;5.70;1.00;;;;;;6138069;23;20256;-86
2024/01/27 17:35:07;;;;;;;15.68;9.23;;;5.70;1.00;;;;;;6137652;23;20181;-90
2024/01/27 17:43:38;;;;;;;11.00;4.22;;;5.60;1.00;;;;;;6137168;23;20234;-88
2024/01/27 17:47:01;;;;;;;8.52;3.30;;;5.50;1.00;;;;;;6146574;23;20186;-89
2024/01/27 17:50:33;;;;;;;;;;;;;;;;;;;;;
2024/01/27 18:34:38;;;;;;;11.45;5.22;;;5.10;99.90;;;;;;6139876;23;20232;-90
2024/01/27 18:37:58;;;;;;;13.32;5.45;;;5.10;99.90;;;;;;6077636;23;20249;-90
2024/01/27 18:41:11;;;;;;;;;;;;;;;;;;;;;
2024/01/27 18:47:40;;;;;;;14.77;4.90;;;5.00;99.90;;;;;;6152430;23;20161;-91
2024/01/27 19:33:31;;;;;;;12.57;6.18;;;5.10;1.00;;;;;;5708445;24;20215;-90
2024/01/27 19:43:46;;;;;;;15.48;6.50;;;4.80;99.90;;;;;;6128225;23;20204;-88
2024/01/27 19:46:13;;;;;;;15.60;7.35;;;4.70;99.90;;;;;;6165009;23;20284;-88
2024/01/27 19:48:43;;;;;;;13.52;6.85;;;4.70;1.00;;;;;;6172153;23;20184;-87
2024/01/27 19:51:12;;;;;;;16.27;7.13;;;4.70;99.90;;;;;;6176318;23;20164;-88
2024/01/27 19:53:44;;;;;;;11.68;7.53;;;4.70;99.90;;;;;;6166961;23;20545;-88
2024/01/27 19:56:14;;;;;;;17.80;6.13;;;4.50;99.90;;;;;;6165520;23;20231;-89
2024/01/27 19:58:45;;;;;;;19.17;10.82;;;4.60;99.90;;;;;;6164584;23;20177;-88
2024/01/27 20:01:16;;;;;;;11.98;6.60;;;4.60;1.00;;;;;;6165745;23;20180;-88
2024/01/27 20:03:55;;;;;;;13.65;6.55;;;4.50;1.00;;;;;;6163921;23;20303;-88
2024/01/27 20:06:29;;;;;;;14.48;7.07;;;4.40;1.00;;;;;;6165680;23;20192;-88
2024/01/27 20:09:04;;;;;;;15.60;6.35;;;4.50;1.00;;;;;;6166899;23;20200;-88
2024/01/27 20:11:31;;;;;;;13.77;5.78;;;4.60;1.00;;;;;;6168534;23;20227;-89
2024/01/27 20:14:04;;;;;;;14.13;8.35;;;4.50;1.00;;;;;;6163932;23;20203;-88
2024/01/27 20:16:33;;;;;;;16.33;7.93;;;4.50;1.00;;;;;;6164593;23;20215;-88
2024/01/27 20:19:07;;;;;;;11.15;6.45;;;4.50;1.00;;;;;;6167323;23;20183;-88
2024/01/27 20:21:34;;;;;;;17.08;6.68;;;4.50;1.00;;;;;;6169942;23;20176;-87
2024/01/27 20:24:01;;;;;;;15.20;6.93;;;4.50;1.00;;;;;;6168216;23;20200;-88
2024/01/27 20:26:28;;;;;;;14.73;6.53;;;4.50;1.00;;;;;;6163572;23;20200;-88
2024/01/27 20:28:55;;;;;;;21.00;7.63;;;4.60;1.00;;;;;;6163035;23;20181;-88
2024/01/27 20:31:24;;;;;;;13.20;7.22;;;4.60;1.00;;;;;;6173517;23;20180;-87
2024/01/27 20:33:51;;;;;;;10.60;5.32;;;4.60;1.00;;;;;;6177378;23;20244;-89
2024/01/27 20:39:31;;;;;;;22.35;9.15;;;4.50;1.00;;;;;;6181906;23;20209;-88
2024/01/27 20:45:22;;;;;;;11.55;6.80;;;4.70;1.00;;;;;;6172432;23;20187;-89
2024/01/27 20:48:20;;;;;;;16.65;6.00;;;4.40;1.00;;;;;;6175490;23;20168;-89
2024/01/27 21:20:47;;;;;;;12.52;5.80;;;4.30;82.20;;;;;;6130028;23;20219;-82
2024/01/27 21:23:14;;;;;;;12.73;5.15;;;4.30;1.00;;;;;;6182909;23;20207;-81
2024/01/27 21:25:41;;;;;;;13.27;6.55;;;4.30;1.00;;;;;;6174322;23;20231;-83
2024/01/27 21:28:08;;;;;;;12.18;6.32;;;4.20;18.40;;;;;;6168933;23;20564;-83
2024/01/27 21:30:34;;;;;;;10.02;6.75;;;4.20;99.90;;;;;;6163530;23;20181;-83
2024/01/27 21:33:01;;;;;;;20.88;6.20;;;4.20;25.50;;;;;;6170345;23;20232;-83
2024/01/27 21:39:30;;;;;;;12.73;5.68;;;4.20;99.90;;;;;;6105279;23;20188;-90
2024/01/27 21:48:37;;;;;;;12.25;5.40;;;4.50;1.00;;;;;;6183261;23;20156;-89
2024/01/27 21:51:17;;;;;;;16.05;4.97;;;4.20;1.00;;;;;;6174150;23;20180;-91
2024/01/27 21:54:05;;;;;;;15.43;5.32;;;4.20;1.00;;;;;;6167738;23;20193;-90
2024/01/27 21:57:13;;;;;;;14.10;6.07;;;4.30;1.00;;;;;;6163639;23;20661;-90
2024/01/27 21:59:59;;;;;;;19.60;7.57;;;4.30;1.00;;;;;;6164689;23;20187;-89
2024/01/27 22:02:53;;;;;;;14.90;5.85;;;4.40;99.90;;;;;;6163440;23;20172;-89
2024/01/27 22:05:23;;;;;;;12.23;4.95;;;4.20;99.90;;;;;;6162781;23;20172;-90
2024/01/27 22:49:57;;;;;;;18.75;9.27;;;4.00;1.00;;;;;;6077430;23;20208;-82
2024/01/27 22:52:24;;;;;;;15.77;6.85;;;4.00;1.00;;;;;;6164940;23;20187;-84
2024/01/27 22:54:51;;;;;;;15.07;6.10;;;3.90;99.90;;;;;;6164330;23;20211;-82
2024/01/27 22:57:19;;;;;;;8.80;5.28;;;3.90;1.00;;;;;;6164067;23;20247;-82
2024/01/27 22:59:46;;;;;;;9.45;5.72;;;3.90;1.00;;;;;;6171392;23;20207;-84
2024/01/27 23:02:13;;;;;;;15.95;6.70;;;3.90;1.00;;;;;;6179714;23;20177;-83
2024/01/27 23:04:41;;;;;;;11.75;8.85;;;4.00;90.70;;;;;;6167659;23;20187;-85
2024/01/27 23:07:10;;;;;;;9.82;6.38;;;3.90;1.00;;;;;;6170811;23;20180;-84
2024/01/27 23:09:37;;;;;;;14.93;5.70;;;3.90;1.00;;;;;;6174264;23;20185;-85
2024/01/27 23:12:05;;;;;;;16.42;6.78;;;3.80;1.00;;;;;;6172726;23;20208;-84
2024/01/27 23:14:31;;;;;;;13.27;6.35;;;3.80;1.00;;;;;;6172772;23;20180;-85
2024/01/27 23:16:58;;;;;;;13.57;6.22;;;3.80;1.00;;;;;;6169154;23;20228;-85
2024/01/27 23:19:25;;;;;;;20.75;7.20;;;3.80;1.00;;;;;;6169420;23;20200;-85
2024/01/27 23:21:52;;;;;;;17.70;6.30;;;3.80;3.00;;;;;;6173014;23;20184;-85
2024/01/27 23:24:20;;;;;;;32.55;7.65;;;3.90;1.00;;;;;;6178749;23;20176;-84
2024/01/27 23:26:47;;;;;;;13.50;5.28;;;4.00;1.00;;;;;;6164858;23;20211;-83
2024/01/27 23:29:14;;;;;;;11.68;5.53;;;3.90;99.90;;;;;;6163924;23;20316;-83
2024/01/27 23:31:41;;;;;;;12.73;4.90;;;3.80;1.00;;;;;;6164367;23;20181;-84
2024/01/27 23:34:10;;;;;;;14.70;4.97;;;3.70;12.80;;;;;;6164755;23;20496;-84
2024/01/27 23:36:37;;;;;;;20.48;6.25;;;3.70;97.80;;;;;;6165270;23;20200;-84
2024/01/27 23:39:04;;;;;;;11.32;4.50;;;3.50;1.00;;;;;;6167912;23;20200;-83
2024/01/27 23:41:33;;;;;;;8.90;4.78;;;3.60;99.90;;;;;;6167322;23;20180;-83
2024/01/27 23:44:00;;;;;;;10.02;5.80;;;3.60;99.90;;;;;;6172776;23;20172;-82
2024/01/27 23:46:26;;;;;;;14.02;5.90;;;3.50;54.80;;;;;;6171656;23;20208;-83
2024/01/27 23:48:53;;;;;;;12.15;5.28;;;3.60;99.90;;;;;;6166248;23;20307;-83
2024/01/27 23:51:22;;;;;;;13.50;6.53;;;3.60;99.90;;;;;;6136700;23;20181;-84
2024/01/27 23:53:52;;;;;;;12.30;4.70;;;3.50;99.90;;;;;;6136117;23;20177;-83
2024/01/27 23:56:19;;;;;;;9.73;6.53;;;3.60;25.40;;;;;;6136808;23;20165;-83
2024/01/27 23:58:48;;;;;;;17.88;6.28;;;3.60;1.00;;;;;;6140501;23;20181;-83
